ANA9397 KPAE-RJTT
Flight info
| Callsign | ANA9397 |
|---|---|
| Flight time | N/A |
| Altitude | 36000 |
| Route | PERLL DCT ARRIE J523 TOU J501 CYVIC Q801 FINGS DCT GUPEY DCT 54N140W/N0470F380 56N150W DCT PDN DCT 57N160W DCT PUGGY R341 HAVAM/N0489F400 R341 NATES R220 NIPPI/N0490F410 R220 NANAC/N0473F400 Y810 AKRIT Y807 POLIX |
| Aircraft | B77W/H-SDE1E2E3FGHIJ2J3J4J5M1RWXY/LB1D1 |
Departure
| Time | 2026-04-22 17:15 |
|---|---|
| Airport | Seattle Paine Field International Airport (KPAE) |
Arrival
| Time | N/A |
|---|---|
| Airport | Tokyo Haneda International Airport (RJTT) |
| Time | Latitude | Longitude | Altitude | Speed | Heading |
|---|---|---|---|---|---|
| 2026-04-22 16:41 | 47.91681 | -122.27945 | 585 ft | 0 kts | 91° |
| 2026-04-22 17:06 | 47.91681 | -122.27947 | 585 ft | 1 kts | 91° |
| 2026-04-22 17:07 | 47.91681 | -122.27968 | 584 ft | 2 kts | 91° |
| 2026-04-22 17:07 | 47.91681 | -122.27990 | 583 ft | 2 kts | 91° |
| 2026-04-22 17:07 | 47.91682 | -122.28013 | 582 ft | 2 kts | 85° |
| 2026-04-22 17:07 | 47.91677 | -122.28033 | 581 ft | 2 kts | 47° |
| 2026-04-22 17:08 | 47.91665 | -122.28046 | 579 ft | 2 kts | 16° |
| 2026-04-22 17:08 | 47.91650 | -122.28049 | 578 ft | 2 kts | 355° |
| 2026-04-22 17:08 | 47.91635 | -122.28047 | 577 ft | 2 kts | 357° |
| 2026-04-22 17:08 | 47.91625 | -122.28046 | 576 ft | 0 kts | 360° |
| 2026-04-22 17:09 | 47.91624 | -122.28046 | 576 ft | 0 kts | 360° |
| 2026-04-22 17:11 | 47.91625 | -122.28046 | 576 ft | 0 kts | 360° |
| 2026-04-22 17:11 | 47.91637 | -122.28046 | 577 ft | 4 kts | 0° |
| 2026-04-22 17:11 | 47.91682 | -122.28046 | 580 ft | 9 kts | 0° |
| 2026-04-22 17:12 | 47.91756 | -122.28046 | 585 ft | 10 kts | 0° |
| 2026-04-22 17:12 | 47.91829 | -122.28046 | 587 ft | 11 kts | 0° |
| 2026-04-22 17:12 | 47.91915 | -122.28046 | 587 ft | 13 kts | 0° |
| 2026-04-22 17:12 | 47.92022 | -122.28046 | 584 ft | 16 kts | 0° |
| 2026-04-22 17:13 | 47.92101 | -122.28046 | 580 ft | 10 kts | 0° |
| 2026-04-22 17:13 | 47.92156 | -122.28108 | 570 ft | 15 kts | 285° |
| 2026-04-22 17:13 | 47.92164 | -122.28291 | 555 ft | 18 kts | 268° |
| 2026-04-22 17:13 | 47.92154 | -122.28455 | 561 ft | 12 kts | 264° |
| 2026-04-22 17:14 | 47.92147 | -122.28548 | 568 ft | 6 kts | 263° |
| 2026-04-22 17:14 | 47.92131 | -122.28577 | 569 ft | 3 kts | 200° |
| 2026-04-22 17:14 | 47.92110 | -122.28581 | 570 ft | 4 kts | 184° |
| 2026-04-22 17:14 | 47.91994 | -122.28583 | 576 ft | 43 kts | 179° |
| 2026-04-22 17:15 | 47.91651 | -122.28577 | 582 ft | 104 kts | 180° |
| 2026-04-22 17:15 | 47.90231 | -122.28561 | 920 ft | 181 kts | 179° |
| 2026-04-22 17:15 | 47.88924 | -122.28527 | 1821 ft | 201 kts | 179° |
| 2026-04-22 17:15 | 47.87537 | -122.28506 | 2738 ft | 200 kts | 179° |
| 2026-04-22 17:16 | 47.86536 | -122.28498 | 4624 ft | 117 kts | 180° |
| 2026-04-22 17:16 | 47.85620 | -122.28460 | 4446 ft | 169 kts | 180° |
| 2026-04-22 17:16 | 47.84263 | -122.28397 | 4423 ft | 211 kts | 178° |